sensor_id;sensor_type;location;lat;lon;timestamp;pressure;altitude;pressure_sealevel;temperature;humidity
45255;BME280;30989;52.078;21.014;2023-08-07T00:01:30;167491.22;;;14.22;100.00
45255;BME280;30989;52.078;21.014;2023-08-07T00:03:55;167479.16;;;14.17;100.00
45255;BME280;30989;52.078;21.014;2023-08-07T00:06:21;167484.50;;;14.19;100.00
45255;BME280;30989;52.078;21.014;2023-08-07T00:08:46;167468.41;;;14.13;100.00
45255;BME280;30989;52.078;21.014;2023-08-07T00:11:12;167464.38;;;14.12;100.00
45255;BME280;30989;52.078;21.014;2023-08-07T00:13:37;167467.06;;;14.13;100.00
45255;BME280;30989;52.078;21.014;2023-08-07T00:16:03;167455.00;;;14.08;100.00
45255;BME280;30989;52.078;21.014;2023-08-07T00:18:29;167476.47;;;14.16;100.00
45255;BME280;30989;52.078;21.014;2023-08-07T00:20:55;167475.13;;;14.16;100.00
45255;BME280;30989;52.078;21.014;2023-08-07T00:23:20;167469.75;;;14.14;100.00
45255;BME280;30989;52.078;21.014;2023-08-07T00:25:46;167480.50;;;14.18;100.00
45255;BME280;30989;52.078;21.014;2023-08-07T00:28:11;167476.47;;;14.16;100.00
45255;BME280;30989;52.078;21.014;2023-08-07T00:30:37;167491.22;;;14.22;100.00
45255;BME280;30989;52.078;21.014;2023-08-07T00:33:03;167475.13;;;14.16;100.00
45255;BME280;30989;52.078;21.014;2023-08-07T00:35:31;167481.84;;;14.18;100.00
45255;BME280;30989;52.078;21.014;2023-08-07T00:37:56;167471.09;;;14.14;100.00
45255;BME280;30989;52.078;21.014;2023-08-07T00:40:22;167475.13;;;14.16;100.00
45255;BME280;30989;52.078;21.014;2023-08-07T00:42:48;167472.44;;;14.15;100.00
45255;BME280;30989;52.078;21.014;2023-08-07T00:45:14;167483.16;;;14.19;100.00
45255;BME280;30989;52.078;21.014;2023-08-07T00:47:39;167476.47;;;14.16;100.00
45255;BME280;30989;52.078;21.014;2023-08-07T00:50:05;167468.41;;;14.13;100.00
45255;BME280;30989;52.078;21.014;2023-08-07T00:52:32;167467.06;;;14.13;100.00
45255;BME280;30989;52.078;21.014;2023-08-07T00:54:57;167477.81;;;14.17;100.00
45255;BME280;30989;52.078;21.014;2023-08-07T00:57:23;167467.06;;;14.13;100.00
45255;BME280;30989;52.078;21.014;2023-08-07T00:59:50;167465.72;;;14.12;100.00
45255;BME280;30989;52.078;21.014;2023-08-07T01:02:16;167472.44;;;14.15;100.00
45255;BME280;30989;52.078;21.014;2023-08-07T01:04:42;167476.47;;;14.16;100.00
45255;BME280;30989;52.078;21.014;2023-08-07T01:07:07;167468.41;;;14.13;100.00
45255;BME280;30989;52.078;21.014;2023-08-07T01:09:33;167456.31;;;14.09;100.00
45255;BME280;30989;52.078;21.014;2023-08-07T01:12:10;167436.19;;;14.01;100.00
45255;BME280;30989;52.078;21.014;2023-08-07T01:14:52;167416.06;;;13.94;100.00
45255;BME280;30989;52.078;21.014;2023-08-07T01:17:22;167413.38;;;13.93;100.00
45255;BME280;30989;52.078;21.014;2023-08-07T01:19:52;167397.28;;;13.86;100.00
45255;BME280;30989;52.078;21.014;2023-08-07T01:22:19;167375.81;;;13.78;100.00
45255;BME280;30989;52.078;21.014;2023-08-07T01:24:49;167347.63;;;13.68;100.00
45255;BME280;30989;52.078;21.014;2023-08-07T01:32:29;167283.22;;;13.43;100.00
45255;BME280;30989;52.078;21.014;2023-08-07T01:35:01;167276.50;;;13.41;100.00
45255;BME280;30989;52.078;21.014;2023-08-07T01:37:29;167272.47;;;13.39;100.00
45255;BME280;30989;52.078;21.014;2023-08-07T01:39:58;167263.09;;;13.36;100.00
45255;BME280;30989;52.078;21.014;2023-08-07T01:42:26;167269.78;;;13.38;100.00
45255;BME280;30989;52.078;21.014;2023-08-07T01:44:52;167271.16;;;13.39;100.00
45255;BME280;30989;52.078;21.014;2023-08-07T01:47:17;167259.06;;;13.34;100.00
45255;BME280;30989;52.078;21.014;2023-08-07T01:49:44;167276.50;;;13.41;100.00
45255;BME280;30989;52.078;21.014;2023-08-07T01:52:09;167260.41;;;13.35;100.00
45255;BME280;30989;52.078;21.014;2023-08-07T01:54:36;167272.47;;;13.39;100.00
45255;BME280;30989;52.078;21.014;2023-08-07T01:57:02;167269.78;;;13.38;100.00
45255;BME280;30989;52.078;21.014;2023-08-07T01:59:27;167261.75;;;13.35;100.00
45255;BME280;30989;52.078;21.014;2023-08-07T02:01:52;167260.41;;;13.35;100.00
45255;BME280;30989;52.078;21.014;2023-08-07T02:04:18;167257.72;;;13.34;100.00
45255;BME280;30989;52.078;21.014;2023-08-07T02:06:43;167255.03;;;13.33;100.00
45255;BME280;30989;52.078;21.014;2023-08-07T02:09:09;167241.63;;;13.28;100.00
45255;BME280;30989;52.078;21.014;2023-08-07T02:11:34;167228.22;;;13.22;100.00
45255;BME280;30989;52.078;21.014;2023-08-07T02:13:59;167229.56;;;13.23;100.00
45255;BME280;30989;52.078;21.014;2023-08-07T02:16:25;167225.53;;;13.21;100.00
45255;BME280;30989;52.078;21.014;2023-08-07T02:18:50;167241.63;;;13.28;100.00
45255;BME280;30989;52.078;21.014;2023-08-07T02:21:16;167233.56;;;13.25;100.00
45255;BME280;30989;52.078;21.014;2023-08-07T02:23:41;167257.72;;;13.34;100.00
45255;BME280;30989;52.078;21.014;2023-08-07T02:26:07;167248.34;;;13.30;100.00
45255;BME280;30989;52.078;21.014;2023-08-07T02:28:32;167281.88;;;13.43;100.00
45255;BME280;30989;52.078;21.014;2023-08-07T02:30:59;167283.22;;;13.43;100.00
45255;BME280;30989;52.078;21.014;2023-08-07T02:33:25;167283.22;;;13.43;100.00
45255;BME280;30989;52.078;21.014;2023-08-07T02:35:51;167291.25;;;13.46;100.00
45255;BME280;30989;52.078;21.014;2023-08-07T02:38:16;167297.97;;;13.49;100.00
45255;BME280;30989;52.078;21.014;2023-08-07T02:40:43;167318.09;;;13.57;100.00
45255;BME280;30989;52.078;21.014;2023-08-07T02:43:08;167308.72;;;13.53;100.00
45255;BME280;30989;52.078;21.014;2023-08-07T02:45:35;167327.50;;;13.60;100.00
45255;BME280;30989;52.078;21.014;2023-08-07T02:48:01;167308.72;;;13.53;100.00
45255;BME280;30989;52.078;21.014;2023-08-07T02:50:27;167304.69;;;13.51;100.00
45255;BME280;30989;52.078;21.014;2023-08-07T02:52:55;167326.16;;;13.60;100.00
45255;BME280;30989;52.078;21.014;2023-08-07T02:55:20;167320.78;;;13.58;100.00
45255;BME280;30989;52.078;21.014;2023-08-07T02:57:45;167315.41;;;13.55;100.00
45255;BME280;30989;52.078;21.014;2023-08-07T03:00:14;167300.66;;;13.50;100.00
45255;BME280;30989;52.078;21.014;2023-08-07T03:02:39;167287.25;;;13.45;100.00
45255;BME280;30989;52.078;21.014;2023-08-07T03:05:05;167283.22;;;13.43;100.00
45255;BME280;30989;52.078;21.014;2023-08-07T03:07:30;167263.09;;;13.36;100.00
45255;BME280;30989;52.078;21.014;2023-08-07T03:09:56;167289.94;;;13.46;100.00
45255;BME280;30989;52.078;21.014;2023-08-07T03:12:21;167281.88;;;13.43;100.00
45255;BME280;30989;52.078;21.014;2023-08-07T03:14:47;167279.19;;;13.42;100.00
45255;BME280;30989;52.078;21.014;2023-08-07T03:17:12;167264.44;;;13.36;100.00
45255;BME280;30989;52.078;21.014;2023-08-07T03:19:41;167247.00;;;13.30;100.00
45255;BME280;30989;52.078;21.014;2023-08-07T03:22:07;167240.28;;;13.27;100.00
45255;BME280;30989;52.078;21.014;2023-08-07T03:24:32;167240.28;;;13.27;100.00
45255;BME280;30989;52.078;21.014;2023-08-07T03:26:58;167221.50;;;13.20;100.00
45255;BME280;30989;52.078;21.014;2023-08-07T03:29:23;167214.78;;;13.17;100.00
45255;BME280;30989;52.078;21.014;2023-08-07T03:31:49;167210.72;;;13.16;100.00
45255;BME280;30989;52.078;21.014;2023-08-07T03:34:16;167214.78;;;13.17;100.00
45255;BME280;30989;52.078;21.014;2023-08-07T03:36:41;167218.81;;;13.19;100.00
45255;BME280;30989;52.078;21.014;2023-08-07T03:39:06;167226.88;;;13.22;100.00
45255;BME280;30989;52.078;21.014;2023-08-07T03:41:33;167245.66;;;13.29;100.00
45255;BME280;30989;52.078;21.014;2023-08-07T03:43:59;167244.31;;;13.29;100.00
45255;BME280;30989;52.078;21.014;2023-08-07T03:46:24;167261.75;;;13.35;100.00
45255;BME280;30989;52.078;21.014;2023-08-07T03:48:50;167275.16;;;13.40;100.00
45255;BME280;30989;52.078;21.014;2023-08-07T03:51:17;167291.25;;;13.46;100.00
45255;BME280;30989;52.078;21.014;2023-08-07T03:53:47;167314.06;;;13.55;100.00
45255;BME280;30989;52.078;21.014;2023-08-07T03:56:12;167332.88;;;13.62;100.00
45255;BME280;30989;52.078;21.014;2023-08-07T03:58:38;167355.66;;;13.71;100.00
45255;BME280;30989;52.078;21.014;2023-08-07T04:01:04;167362.38;;;13.73;100.00
45255;BME280;30989;52.078;21.014;2023-08-07T04:03:30;167373.13;;;13.77;100.00
45255;BME280;30989;52.078;21.014;2023-08-07T04:05:55;167377.13;;;13.79;100.00
45255;BME280;30989;52.078;21.014;2023-08-07T04:08:22;167379.81;;;13.80;100.00
45255;BME280;30989;52.078;21.014;2023-08-07T04:11:01;167394.59;;;13.85;100.00
45255;BME280;30989;52.078;21.014;2023-08-07T04:13:27;167398.63;;;13.87;100.00
45255;BME280;30989;52.078;21.014;2023-08-07T04:15:53;167402.66;;;13.88;100.00
45255;BME280;30989;52.078;21.014;2023-08-07T04:18:18;167390.56;;;13.84;100.00
45255;BME280;30989;52.078;21.014;2023-08-07T04:20:53;167373.13;;;13.77;100.00
45255;BME280;30989;52.078;21.014;2023-08-07T04:23:19;167416.06;;;13.94;100.00
45255;BME280;30989;52.078;21.014;2023-08-07T04:25:46;167412.03;;;13.92;100.00
45255;BME280;30989;52.078;21.014;2023-08-07T04:28:12;167414.72;;;13.93;100.00
45255;BME280;30989;52.078;21.014;2023-08-07T04:30:38;167428.16;;;13.98;100.00
45255;BME280;30989;52.078;21.014;2023-08-07T04:33:03;167429.47;;;13.99;100.00
45255;BME280;30989;52.078;21.014;2023-08-07T04:35:30;167421.44;;;13.96;100.00
45255;BME280;30989;52.078;21.014;2023-08-07T04:37:56;167437.53;;;14.02;100.00
45255;BME280;30989;52.078;21.014;2023-08-07T04:40:21;167444.25;;;14.04;100.00
45255;BME280;30989;52.078;21.014;2023-08-07T04:42:49;167437.53;;;14.02;100.00
45255;BME280;30989;52.078;21.014;2023-08-07T04:45:14;167455.00;;;14.08;100.00
45255;BME280;30989;52.078;21.014;2023-08-07T04:47:43;167456.31;;;14.09;100.00
45255;BME280;30989;52.078;21.014;2023-08-07T04:50:08;167442.91;;;14.04;100.00
45255;BME280;30989;52.078;21.014;2023-08-07T04:52:35;167449.63;;;14.06;100.00
45255;BME280;30989;52.078;21.014;2023-08-07T04:55:01;167442.91;;;14.04;100.00
45255;BME280;30989;52.078;21.014;2023-08-07T04:57:26;167446.94;;;14.05;100.00
45255;BME280;30989;52.078;21.014;2023-08-07T04:59:52;167457.66;;;14.09;100.00
45255;BME280;30989;52.078;21.014;2023-08-07T05:02:18;167464.38;;;14.12;100.00
45255;BME280;30989;52.078;21.014;2023-08-07T05:04:44;167465.72;;;14.12;100.00
45255;BME280;30989;52.078;21.014;2023-08-07T05:07:10;167457.66;;;14.09;100.00
45255;BME280;30989;52.078;21.014;2023-08-07T05:09:35;167475.13;;;14.16;100.00
45255;BME280;30989;52.078;21.014;2023-08-07T05:12:01;167493.91;;;14.23;100.00
45255;BME280;30989;52.078;21.014;2023-08-07T05:14:28;167485.84;;;14.20;100.00
45255;BME280;30989;52.078;21.014;2023-08-07T05:16:56;167511.38;;;14.30;100.00
45255;BME280;30989;52.078;21.014;2023-08-07T05:19:22;167523.44;;;14.34;100.00
45255;BME280;30989;52.078;21.014;2023-08-07T05:21:50;167547.66;;;14.43;100.00
45255;BME280;30989;52.078;21.014;2023-08-07T05:24:17;167555.72;;;14.46;100.00
45255;BME280;30989;52.078;21.014;2023-08-07T05:26:42;167544.97;;;14.42;100.00
45255;BME280;30989;52.078;21.014;2023-08-07T05:29:08;167550.34;;;14.44;100.00
45255;BME280;30989;52.078;21.014;2023-08-07T05:31:33;167569.13;;;14.51;100.00
45255;BME280;30989;52.078;21.014;2023-08-07T05:33:59;167577.19;;;14.55;100.00
45255;BME280;30989;52.078;21.014;2023-08-07T05:36:25;167570.47;;;14.52;100.00
45255;BME280;30989;52.078;21.014;2023-08-07T05:38:51;167561.09;;;14.48;100.00
45255;BME280;30989;52.078;21.014;2023-08-07T05:41:16;167547.66;;;14.43;100.00
45255;BME280;30989;52.078;21.014;2023-08-07T05:43:42;167553.03;;;14.45;100.00
45255;BME280;30989;52.078;21.014;2023-08-07T05:46:07;167540.91;;;14.41;100.00
45255;BME280;30989;52.078;21.014;2023-08-07T05:48:33;167543.63;;;14.42;100.00
45255;BME280;30989;52.078;21.014;2023-08-07T05:50:58;167559.75;;;14.48;100.00
45255;BME280;30989;52.078;21.014;2023-08-07T05:53:24;167562.44;;;14.49;100.00
45255;BME280;30989;52.078;21.014;2023-08-07T05:55:49;167555.72;;;14.46;100.00
45255;BME280;30989;52.078;21.014;2023-08-07T05:58:15;167565.13;;;14.50;100.00
45255;BME280;30989;52.078;21.014;2023-08-07T06:00:40;167574.50;;;14.54;100.00
45255;BME280;30989;52.078;21.014;2023-08-07T06:03:06;167586.59;;;14.58;100.00
45255;BME280;30989;52.078;21.014;2023-08-07T06:05:31;167590.63;;;14.60;100.00
45255;BME280;30989;52.078;21.014;2023-08-07T06:07:57;167594.66;;;14.61;100.00
45255;BME280;30989;52.078;21.014;2023-08-07T06:10:28;167582.56;;;14.57;100.00
45255;BME280;30989;52.078;21.014;2023-08-07T06:12:53;167617.47;;;14.70;100.00
45255;BME280;30989;52.078;21.014;2023-08-07T06:15:19;167622.84;;;14.72;100.00
45255;BME280;30989;52.078;21.014;2023-08-07T06:17:45;167630.91;;;14.75;100.00
45255;BME280;30989;52.078;21.014;2023-08-07T06:20:11;167651.03;;;14.82;100.00
45255;BME280;30989;52.078;21.014;2023-08-07T06:22:40;167669.84;;;14.90;100.00
45255;BME280;30989;52.078;21.014;2023-08-07T06:25:06;167698.03;;;15.00;100.00
45255;BME280;30989;52.078;21.014;2023-08-07T06:27:32;167700.72;;;15.01;100.00
45255;BME280;30989;52.078;21.014;2023-08-07T06:29:57;167695.34;;;14.99;100.00
45255;BME280;30989;52.078;21.014;2023-08-07T06:32:25;167676.56;;;14.92;100.00
45255;BME280;30989;52.078;21.014;2023-08-07T06:34:50;167655.06;;;14.84;100.00
45255;BME280;30989;52.078;21.014;2023-08-07T06:37:16;167636.28;;;14.77;100.00
45255;BME280;30989;52.078;21.014;2023-08-07T06:39:41;167625.53;;;14.73;100.00
45255;BME280;30989;52.078;21.014;2023-08-07T06:42:07;167629.56;;;14.74;100.00
45255;BME280;30989;52.078;21.014;2023-08-07T06:44:34;167645.66;;;14.80;100.00
45255;BME280;30989;52.078;21.014;2023-08-07T06:47:00;167645.66;;;14.80;100.00
45255;BME280;30989;52.078;21.014;2023-08-07T06:49:25;167708.78;;;15.04;100.00
45255;BME280;30989;52.078;21.014;2023-08-07T06:51:50;167737.00;;;15.15;100.00
45255;BME280;30989;52.078;21.014;2023-08-07T06:54:16;167739.69;;;15.16;100.00
45255;BME280;30989;52.078;21.014;2023-08-07T06:56:41;167800.13;;;15.39;100.00
45255;BME280;30989;52.078;21.014;2023-08-07T06:59:08;167833.72;;;15.52;100.00
45255;BME280;30989;52.078;21.014;2023-08-07T07:01:33;167870.09;;;15.65;100.00
45255;BME280;30989;52.078;21.014;2023-08-07T07:03:59;167884.84;;;15.71;100.00
45255;BME280;30989;52.078;21.014;2023-08-07T07:06:25;167899.63;;;15.76;100.00
45255;BME280;30989;52.078;21.014;2023-08-07T07:08:53;167887.53;;;15.72;100.00
45255;BME280;30989;52.078;21.014;2023-08-07T07:11:22;167864.72;;;15.63;100.00
45255;BME280;30989;52.078;21.014;2023-08-07T07:13:50;167844.44;;;15.56;100.00
45255;BME280;30989;52.078;21.014;2023-08-07T07:16:17;167817.59;;;15.45;100.00
45255;BME280;30989;52.078;21.014;2023-08-07T07:18:43;167837.75;;;15.53;100.00
45255;BME280;30989;52.078;21.014;2023-08-07T07:21:08;167856.66;;;15.60;100.00
45255;BME280;30989;52.078;21.014;2023-08-07T07:23:34;167864.72;;;15.63;100.00
45255;BME280;30989;52.078;21.014;2023-08-07T07:25:59;167836.38;;;15.53;100.00
45255;BME280;30989;52.078;21.014;2023-08-07T07:28:24;167832.38;;;15.51;100.00
45255;BME280;30989;52.078;21.014;2023-08-07T07:30:50;167832.38;;;15.51;100.00
45255;BME280;30989;52.078;21.014;2023-08-07T07:33:16;167851.22;;;15.58;100.00
45255;BME280;30989;52.078;21.014;2023-08-07T07:35:41;167829.69;;;15.50;100.00
45255;BME280;30989;52.078;21.014;2023-08-07T07:38:07;167810.88;;;15.43;100.00
45255;BME280;30989;52.078;21.014;2023-08-07T07:40:34;167802.81;;;15.40;100.00
45255;BME280;30989;52.078;21.014;2023-08-07T07:42:59;167812.22;;;15.43;100.00
45255;BME280;30989;52.078;21.014;2023-08-07T07:45:25;167817.59;;;15.45;100.00
45255;BME280;30989;52.078;21.014;2023-08-07T07:47:50;167820.28;;;15.46;100.00
45255;BME280;30989;52.078;21.014;2023-08-07T07:50:16;167814.91;;;15.44;100.00
45255;BME280;30989;52.078;21.014;2023-08-07T07:52:41;167827.00;;;15.49;100.00
45255;BME280;30989;52.078;21.014;2023-08-07T07:55:08;167812.22;;;15.43;100.00
45255;BME280;30989;52.078;21.014;2023-08-07T07:57:34;167790.72;;;15.35;100.00
45255;BME280;30989;52.078;21.014;2023-08-07T08:00:01;167805.50;;;15.41;100.00
45255;BME280;30989;52.078;21.014;2023-08-07T08:02:37;167872.78;;;15.66;100.00
45255;BME280;30989;52.078;21.014;2023-08-07T08:05:02;167926.50;;;15.87;100.00
45255;BME280;30989;52.078;21.014;2023-08-07T08:07:28;167984.28;;;16.08;100.00
45255;BME280;30989;52.078;21.014;2023-08-07T08:09:53;167992.34;;;16.11;100.00
45255;BME280;30989;52.078;21.014;2023-08-07T08:12:21;167993.69;;;16.12;100.00
45255;BME280;30989;52.078;21.014;2023-08-07T08:14:46;168015.19;;;16.20;100.00
45255;BME280;30989;52.078;21.014;2023-08-07T08:17:11;168023.25;;;16.23;100.00
45255;BME280;30989;52.078;21.014;2023-08-07T08:19:37;168060.88;;;16.37;98.54
45255;BME280;30989;52.078;21.014;2023-08-07T08:22:02;168095.84;;;16.51;98.84
45255;BME280;30989;52.078;21.014;2023-08-07T08:24:28;168145.63;;;16.69;93.97
45255;BME280;30989;52.078;21.014;2023-08-07T08:26:54;168160.41;;;16.75;97.14
45255;BME280;30989;52.078;21.014;2023-08-07T08:29:19;168184.59;;;16.84;96.13
45255;BME280;30989;52.078;21.014;2023-08-07T08:31:45;168203.44;;;16.91;97.60
45255;BME280;30989;52.078;21.014;2023-08-07T08:34:10;168218.22;;;16.97;94.39
45255;BME280;30989;52.078;21.014;2023-08-07T08:36:36;168235.69;;;17.03;94.21
45255;BME280;30989;52.078;21.014;2023-08-07T08:39:01;168258.56;;;17.12;94.94
45255;BME280;30989;52.078;21.014;2023-08-07T08:41:28;168304.28;;;17.29;93.69
45255;BME280;30989;52.078;21.014;2023-08-07T08:43:54;168343.28;;;17.44;89.50
45255;BME280;30989;52.078;21.014;2023-08-07T08:46:20;168370.16;;;17.54;94.58
45255;BME280;30989;52.078;21.014;2023-08-07T08:48:50;168429.41;;;17.77;90.89
45255;BME280;30989;52.078;21.014;2023-08-07T08:51:17;168448.22;;;17.84;89.18
45255;BME280;30989;52.078;21.014;2023-08-07T08:53:47;168452.28;;;17.85;86.53
45255;BME280;30989;52.078;21.014;2023-08-07T08:56:15;168467.06;;;17.91;86.01
45255;BME280;30989;52.078;21.014;2023-08-07T08:58:41;168493.97;;;18.01;86.14
45255;BME280;30989;52.078;21.014;2023-08-07T09:01:06;168484.56;;;17.97;83.71
45255;BME280;30989;52.078;21.014;2023-08-07T09:03:32;168476.47;;;17.94;84.96
45255;BME280;30989;52.078;21.014;2023-08-07T09:05:58;168454.97;;;17.86;81.21
45255;BME280;30989;52.078;21.014;2023-08-07T09:08:27;168413.25;;;17.70;82.60
45255;BME280;30989;52.078;21.014;2023-08-07T09:10:56;168398.41;;;17.65;79.34
45255;BME280;30989;52.078;21.014;2023-08-07T09:13:23;168389.00;;;17.61;83.24
45255;BME280;30989;52.078;21.014;2023-08-07T09:15:53;168449.56;;;17.84;81.75
45255;BME280;30989;52.078;21.014;2023-08-07T09:18:19;168483.22;;;17.97;80.41
45255;BME280;30989;52.078;21.014;2023-08-07T09:20:45;168535.69;;;18.17;83.06
45255;BME280;30989;52.078;21.014;2023-08-07T09:23:11;168561.25;;;18.26;78.26
45255;BME280;30989;52.078;21.014;2023-08-07T09:25:39;168523.56;;;18.12;79.17
45255;BME280;30989;52.078;21.014;2023-08-07T09:28:05;168522.22;;;18.12;81.71
45255;BME280;30989;52.078;21.014;2023-08-07T09:30:32;168515.50;;;18.09;81.30
45255;BME280;30989;52.078;21.014;2023-08-07T09:32:58;168593.53;;;18.39;82.19
45255;BME280;30989;52.078;21.014;2023-08-07T09:35:24;168627.16;;;18.51;79.65
45255;BME280;30989;52.078;21.014;2023-08-07T09:37:50;168647.34;;;18.59;79.59
45255;BME280;30989;52.078;21.014;2023-08-07T09:40:15;168662.22;;;18.64;76.80
45255;BME280;30989;52.078;21.014;2023-08-07T09:42:41;168663.56;;;18.65;74.93
45255;BME280;30989;52.078;21.014;2023-08-07T09:47:46;168752.38;;;18.98;77.28
45255;BME280;30989;52.078;21.014;2023-08-07T09:50:16;168752.38;;;18.98;72.99
45255;BME280;30989;52.078;21.014;2023-08-07T09:52:50;168779.31;;;19.09;72.68
45255;BME280;30989;52.078;21.014;2023-08-07T09:55:19;168782.00;;;19.10;75.63
45255;BME280;30989;52.078;21.014;2023-08-07T09:57:45;168730.84;;;18.90;76.32
45255;BME280;30989;52.078;21.014;2023-08-07T10:00:12;168753.72;;;18.99;75.50
45255;BME280;30989;52.078;21.014;2023-08-07T10:02:41;168740.25;;;18.94;74.76
45255;BME280;30989;52.078;21.014;2023-08-07T10:05:09;168749.69;;;18.97;78.38
45255;BME280;30989;52.078;21.014;2023-08-07T10:07:36;168790.06;;;19.13;77.06
45255;BME280;30989;52.078;21.014;2023-08-07T10:10:02;168856.03;;;19.38;77.63
45255;BME280;30989;52.078;21.014;2023-08-07T10:12:28;168912.63;;;19.59;77.33
45255;BME280;30989;52.078;21.014;2023-08-07T10:14:54;168948.97;;;19.73;72.90
45255;BME280;30989;52.078;21.014;2023-08-07T10:17:23;168938.22;;;19.69;70.99
45255;BME280;30989;52.078;21.014;2023-08-07T10:19:50;168899.16;;;19.54;72.40
45255;BME280;30989;52.078;21.014;2023-08-07T10:22:17;168873.53;;;19.44;72.48
45255;BME280;30989;52.078;21.014;2023-08-07T10:24:47;169002.84;;;19.93;73.62
45255;BME280;30989;52.078;21.014;2023-08-07T10:27:15;169085.00;;;20.24;66.26
45255;BME280;30989;52.078;21.014;2023-08-07T10:29:44;169010.94;;;19.96;67.20
45255;BME280;30989;52.078;21.014;2023-08-07T10:32:12;168992.06;;;19.89;65.07
45255;BME280;30989;52.078;21.014;2023-08-07T10:34:38;168982.66;;;19.85;64.67
45255;BME280;30989;52.078;21.014;2023-08-07T10:37:07;168969.19;;;19.80;65.55
45255;BME280;30989;52.078;21.014;2023-08-07T10:39:33;168982.66;;;19.85;66.31
45255;BME280;30989;52.078;21.014;2023-08-07T10:41:59;169021.69;;;20.00;68.32
45255;BME280;30989;52.078;21.014;2023-08-07T10:44:25;169070.19;;;20.18;67.50
45255;BME280;30989;52.078;21.014;2023-08-07T10:46:55;169107.91;;;20.33;65.95
45255;BME280;30989;52.078;21.014;2023-08-07T10:49:38;169138.94;;;20.44;64.05
45255;BME280;30989;52.078;21.014;2023-08-07T10:52:09;169138.94;;;20.44;61.63
45255;BME280;30989;52.078;21.014;2023-08-07T10:54:45;169079.63;;;20.22;64.14
45255;BME280;30989;52.078;21.014;2023-08-07T10:57:16;169032.47;;;20.04;63.17
45255;BME280;30989;52.078;21.014;2023-08-07T11:00:02;168973.22;;;19.82;65.16
45255;BME280;30989;52.078;21.014;2023-08-07T11:02:37;168892.38;;;19.51;64.78
45255;BME280;30989;52.078;21.014;2023-08-07T11:05:05;168830.44;;;19.28;66.01
45255;BME280;30989;52.078;21.014;2023-08-07T11:07:30;168773.91;;;19.07;65.92
45255;BME280;30989;52.078;21.014;2023-08-07T11:09:57;168823.72;;;19.25;65.47
45255;BME280;30989;52.078;21.014;2023-08-07T11:12:28;168992.06;;;19.89;66.37
45255;BME280;30989;52.078;21.014;2023-08-07T11:14:54;169128.16;;;20.40;64.60
45255;BME280;30989;52.078;21.014;2023-08-07T11:17:29;169253.50;;;20.87;63.88
45255;BME280;30989;52.078;21.014;2023-08-07T11:19:55;169350.56;;;21.24;61.78
45255;BME280;30989;52.078;21.014;2023-08-07T11:22:21;169391.00;;;21.39;58.62
45255;BME280;30989;52.078;21.014;2023-08-07T11:24:47;169461.06;;;21.66;59.56
45255;BME280;30989;52.078;21.014;2023-08-07T11:27:13;169536.56;;;21.94;57.94
45255;BME280;30989;52.078;21.014;2023-08-07T11:29:38;169515.00;;;21.86;56.87
45255;BME280;30989;52.078;21.014;2023-08-07T11:32:05;169424.69;;;21.52;57.27
45255;BME280;30989;52.078;21.014;2023-08-07T11:34:31;169279.09;;;20.97;57.74
45255;BME280;30989;52.078;21.014;2023-08-07T11:36:56;169288.53;;;21.01;59.78
45255;BME280;30989;52.078;21.014;2023-08-07T11:39:23;169283.13;;;20.99;58.44
45255;BME280;30989;52.078;21.014;2023-08-07T11:41:53;169271.00;;;20.94;60.82
45255;BME280;30989;52.078;21.014;2023-08-07T11:44:19;169293.91;;;21.03;60.86
45255;BME280;30989;52.078;21.014;2023-08-07T11:46:45;169273.69;;;20.95;60.38
45255;BME280;30989;52.078;21.014;2023-08-07T11:49:10;169204.94;;;20.69;60.85
45255;BME280;30989;52.078;21.014;2023-08-07T11:51:37;169094.44;;;20.27;60.92
45255;BME280;30989;52.078;21.014;2023-08-07T11:54:03;168975.91;;;19.83;62.59
45255;BME280;30989;52.078;21.014;2023-08-07T11:56:29;169020.34;;;20.00;62.50
45255;BME280;30989;52.078;21.014;2023-08-07T11:58:54;169266.97;;;20.92;60.62
45255;BME280;30989;52.078;21.014;2023-08-07T12:01:24;169547.34;;;21.98;60.25
45255;BME280;30989;52.078;21.014;2023-08-07T12:03:56;169858.94;;;23.15;59.60
45255;BME280;30989;52.078;21.014;2023-08-07T12:06:25;170030.34;;;23.80;49.93
45255;BME280;30989;52.078;21.014;2023-08-07T12:08:55;170108.59;;;24.09;49.36
45255;BME280;30989;52.078;21.014;2023-08-07T12:11:21;170186.94;;;24.39;49.89
45255;BME280;30989;52.078;21.014;2023-08-07T12:13:47;170180.19;;;24.36;48.51
45255;BME280;30989;52.078;21.014;2023-08-07T12:16:14;170015.50;;;23.74;48.21
45255;BME280;30989;52.078;21.014;2023-08-07T12:18:48;169799.59;;;22.93;50.08
45255;BME280;30989;52.078;21.014;2023-08-07T12:21:16;169626.94;;;22.28;53.14
45255;BME280;30989;52.078;21.014;2023-08-07T12:23:44;169454.34;;;21.63;54.76
45255;BME280;30989;52.078;21.014;2023-08-07T12:26:09;169315.47;;;21.11;56.67
45255;BME280;30989;52.078;21.014;2023-08-07T12:28:35;169296.59;;;21.04;57.46
45255;BME280;30989;52.078;21.014;2023-08-07T12:31:01;169208.97;;;20.71;58.13
45255;BME280;30989;52.078;21.014;2023-08-07T12:33:29;169187.44;;;20.63;57.96
45255;BME280;30989;52.078;21.014;2023-08-07T12:35:55;169109.25;;;20.33;59.06
45255;BME280;30989;52.078;21.014;2023-08-07T12:38:20;169052.69;;;20.12;59.97